sensor_id;sensor_type;location;lat;lon;timestamp;P1;durP1;ratioP1;P2;durP2;ratioP2
59872;SDS011;50750;51.636;4.948;2023-07-13T00:01:31;2.00;;;0.90;;
59872;SDS011;50750;51.636;4.948;2023-07-13T00:03:58;3.10;;;0.80;;
59872;SDS011;50750;51.636;4.948;2023-07-13T00:06:25;2.20;;;0.90;;
59872;SDS011;50750;51.636;4.948;2023-07-13T00:08:59;2.90;;;0.90;;
59872;SDS011;50750;51.636;4.948;2023-07-13T00:11:26;2.00;;;0.90;;
59872;SDS011;50750;51.636;4.948;2023-07-13T00:13:52;2.70;;;0.90;;
59872;SDS011;50750;51.636;4.948;2023-07-13T00:16:19;2.60;;;1.00;;
59872;SDS011;50750;51.636;4.948;2023-07-13T00:18:46;2.60;;;0.90;;
59872;SDS011;50750;51.636;4.948;2023-07-13T00:21:13;1.70;;;0.80;;
59872;SDS011;50750;51.636;4.948;2023-07-13T00:23:41;2.30;;;1.00;;
59872;SDS011;50750;51.636;4.948;2023-07-13T00:26:09;2.70;;;1.00;;
59872;SDS011;50750;51.636;4.948;2023-07-13T00:28:36;2.70;;;1.00;;
59872;SDS011;50750;51.636;4.948;2023-07-13T00:31:03;4.10;;;1.10;;
59872;SDS011;50750;51.636;4.948;2023-07-13T00:33:29;2.10;;;0.90;;
59872;SDS011;50750;51.636;4.948;2023-07-13T00:35:56;2.70;;;0.90;;
59872;SDS011;50750;51.636;4.948;2023-07-13T00:38:24;2.50;;;0.90;;
59872;SDS011;50750;51.636;4.948;2023-07-13T00:40:50;2.00;;;0.90;;
59872;SDS011;50750;51.636;4.948;2023-07-13T00:43:18;2.70;;;1.10;;
59872;SDS011;50750;51.636;4.948;2023-07-13T00:48:26;3.30;;;0.90;;
59872;SDS011;50750;51.636;4.948;2023-07-13T00:50:56;1.90;;;0.90;;
59872;SDS011;50750;51.636;4.948;2023-07-13T00:53:27;2.90;;;0.90;;
59872;SDS011;50750;51.636;4.948;2023-07-13T00:55:55;4.40;;;1.20;;
59872;SDS011;50750;51.636;4.948;2023-07-13T00:58:24;2.10;;;0.80;;
59872;SDS011;50750;51.636;4.948;2023-07-13T01:00:52;1.70;;;0.80;;
59872;SDS011;50750;51.636;4.948;2023-07-13T01:03:19;2.10;;;1.20;;
59872;SDS011;50750;51.636;4.948;2023-07-13T01:05:47;2.20;;;0.90;;
59872;SDS011;50750;51.636;4.948;2023-07-13T01:10:50;2.10;;;0.90;;
59872;SDS011;50750;51.636;4.948;2023-07-13T01:13:17;2.10;;;0.90;;
59872;SDS011;50750;51.636;4.948;2023-07-13T01:15:46;1.70;;;0.80;;
59872;SDS011;50750;51.636;4.948;2023-07-13T01:18:19;3.10;;;0.90;;
59872;SDS011;50750;51.636;4.948;2023-07-13T01:23:22;1.90;;;0.90;;
59872;SDS011;50750;51.636;4.948;2023-07-13T01:25:51;2.70;;;1.00;;
59872;SDS011;50750;51.636;4.948;2023-07-13T01:28:19;2.50;;;1.00;;
59872;SDS011;50750;51.636;4.948;2023-07-13T01:30:46;2.90;;;0.80;;
59872;SDS011;50750;51.636;4.948;2023-07-13T01:33:13;2.10;;;0.90;;
59872;SDS011;50750;51.636;4.948;2023-07-13T01:35:42;2.00;;;0.90;;
59872;SDS011;50750;51.636;4.948;2023-07-13T01:38:10;3.00;;;1.10;;
59872;SDS011;50750;51.636;4.948;2023-07-13T01:40:37;2.30;;;0.90;;
59872;SDS011;50750;51.636;4.948;2023-07-13T01:43:04;2.50;;;1.00;;
59872;SDS011;50750;51.636;4.948;2023-07-13T01:45:31;2.50;;;0.80;;
59872;SDS011;50750;51.636;4.948;2023-07-13T01:47:58;2.30;;;0.90;;
59872;SDS011;50750;51.636;4.948;2023-07-13T01:50:25;1.60;;;0.80;;
59872;SDS011;50750;51.636;4.948;2023-07-13T01:52:52;2.00;;;0.90;;
59872;SDS011;50750;51.636;4.948;2023-07-13T01:55:19;3.50;;;0.90;;
59872;SDS011;50750;51.636;4.948;2023-07-13T01:57:47;3.00;;;0.80;;
59872;SDS011;50750;51.636;4.948;2023-07-13T02:00:14;3.00;;;1.00;;
59872;SDS011;50750;51.636;4.948;2023-07-13T02:02:41;2.10;;;1.00;;
59872;SDS011;50750;51.636;4.948;2023-07-13T02:05:08;2.60;;;1.20;;
59872;SDS011;50750;51.636;4.948;2023-07-13T02:07:35;2.30;;;1.00;;
59872;SDS011;50750;51.636;4.948;2023-07-13T02:10:01;1.70;;;0.90;;
59872;SDS011;50750;51.636;4.948;2023-07-13T02:12:28;2.10;;;0.80;;
59872;SDS011;50750;51.636;4.948;2023-07-13T02:14:54;2.60;;;1.00;;
59872;SDS011;50750;51.636;4.948;2023-07-13T02:17:22;2.10;;;1.00;;
59872;SDS011;50750;51.636;4.948;2023-07-13T02:19:49;2.60;;;0.90;;
59872;SDS011;50750;51.636;4.948;2023-07-13T02:22:15;2.60;;;1.00;;
59872;SDS011;50750;51.636;4.948;2023-07-13T02:24:42;1.70;;;0.80;;
59872;SDS011;50750;51.636;4.948;2023-07-13T02:27:08;3.10;;;1.10;;
59872;SDS011;50750;51.636;4.948;2023-07-13T02:29:34;2.70;;;0.90;;
59872;SDS011;50750;51.636;4.948;2023-07-13T02:32:01;2.10;;;0.90;;
59872;SDS011;50750;51.636;4.948;2023-07-13T02:34:31;2.90;;;1.00;;
59872;SDS011;50750;51.636;4.948;2023-07-13T02:36:57;2.40;;;1.00;;
59872;SDS011;50750;51.636;4.948;2023-07-13T02:39:24;3.10;;;1.00;;
59872;SDS011;50750;51.636;4.948;2023-07-13T02:41:50;3.00;;;1.10;;
59872;SDS011;50750;51.636;4.948;2023-07-13T02:44:17;1.90;;;0.90;;
59872;SDS011;50750;51.636;4.948;2023-07-13T02:46:43;2.90;;;1.00;;
59872;SDS011;50750;51.636;4.948;2023-07-13T02:49:10;2.70;;;1.00;;
59872;SDS011;50750;51.636;4.948;2023-07-13T02:51:36;2.40;;;0.90;;
59872;SDS011;50750;51.636;4.948;2023-07-13T02:54:03;4.40;;;1.00;;
59872;SDS011;50750;51.636;4.948;2023-07-13T02:56:31;2.80;;;0.90;;
59872;SDS011;50750;51.636;4.948;2023-07-13T02:58:58;3.50;;;1.20;;
59872;SDS011;50750;51.636;4.948;2023-07-13T03:01:24;2.80;;;1.10;;
59872;SDS011;50750;51.636;4.948;2023-07-13T03:03:51;2.80;;;1.10;;
59872;SDS011;50750;51.636;4.948;2023-07-13T03:06:18;2.60;;;0.90;;
59872;SDS011;50750;51.636;4.948;2023-07-13T03:08:45;3.60;;;1.20;;
59872;SDS011;50750;51.636;4.948;2023-07-13T03:11:13;2.30;;;0.90;;
59872;SDS011;50750;51.636;4.948;2023-07-13T03:16:08;2.30;;;1.00;;
59872;SDS011;50750;51.636;4.948;2023-07-13T03:18:36;3.80;;;1.20;;
59872;SDS011;50750;51.636;4.948;2023-07-13T03:21:03;2.70;;;1.00;;
59872;SDS011;50750;51.636;4.948;2023-07-13T03:23:31;2.40;;;1.00;;
59872;SDS011;50750;51.636;4.948;2023-07-13T03:28:32;2.60;;;1.10;;
59872;SDS011;50750;51.636;4.948;2023-07-13T03:31:03;2.50;;;1.00;;
59872;SDS011;50750;51.636;4.948;2023-07-13T03:33:32;2.80;;;1.10;;
59872;SDS011;50750;51.636;4.948;2023-07-13T03:36:00;2.40;;;1.20;;
59872;SDS011;50750;51.636;4.948;2023-07-13T03:38:26;4.10;;;1.30;;
59872;SDS011;50750;51.636;4.948;2023-07-13T03:40:53;2.40;;;1.00;;
59872;SDS011;50750;51.636;4.948;2023-07-13T03:43:19;3.60;;;1.20;;
59872;SDS011;50750;51.636;4.948;2023-07-13T03:45:46;3.00;;;1.00;;
59872;SDS011;50750;51.636;4.948;2023-07-13T03:48:13;3.30;;;1.20;;
59872;SDS011;50750;51.636;4.948;2023-07-13T03:50:40;3.40;;;1.20;;
59872;SDS011;50750;51.636;4.948;2023-07-13T03:53:07;2.50;;;1.00;;
59872;SDS011;50750;51.636;4.948;2023-07-13T03:55:34;3.00;;;1.00;;
59872;SDS011;50750;51.636;4.948;2023-07-13T03:58:06;3.10;;;1.10;;
59872;SDS011;50750;51.636;4.948;2023-07-13T04:00:53;3.00;;;1.10;;
59872;SDS011;50750;51.636;4.948;2023-07-13T04:03:20;2.30;;;1.10;;
59872;SDS011;50750;51.636;4.948;2023-07-13T04:05:47;2.70;;;1.10;;
59872;SDS011;50750;51.636;4.948;2023-07-13T04:08:14;3.70;;;1.10;;
59872;SDS011;50750;51.636;4.948;2023-07-13T04:10:40;3.70;;;1.60;;
59872;SDS011;50750;51.636;4.948;2023-07-13T04:13:06;3.00;;;1.30;;
59872;SDS011;50750;51.636;4.948;2023-07-13T04:15:33;2.60;;;1.00;;
59872;SDS011;50750;51.636;4.948;2023-07-13T04:17:59;3.40;;;1.20;;
59872;SDS011;50750;51.636;4.948;2023-07-13T04:20:26;3.50;;;1.10;;
59872;SDS011;50750;51.636;4.948;2023-07-13T04:22:52;3.10;;;1.20;;
59872;SDS011;50750;51.636;4.948;2023-07-13T04:25:20;2.80;;;1.30;;
59872;SDS011;50750;51.636;4.948;2023-07-13T04:27:47;2.90;;;1.00;;
59872;SDS011;50750;51.636;4.948;2023-07-13T04:30:13;2.90;;;1.10;;
59872;SDS011;50750;51.636;4.948;2023-07-13T04:32:40;3.20;;;1.10;;
59872;SDS011;50750;51.636;4.948;2023-07-13T04:35:06;3.00;;;1.20;;
59872;SDS011;50750;51.636;4.948;2023-07-13T04:37:33;4.00;;;1.40;;
59872;SDS011;50750;51.636;4.948;2023-07-13T04:40:01;3.20;;;1.30;;
59872;SDS011;50750;51.636;4.948;2023-07-13T04:42:29;3.10;;;1.30;;
59872;SDS011;50750;51.636;4.948;2023-07-13T04:44:56;2.50;;;1.00;;
59872;SDS011;50750;51.636;4.948;2023-07-13T04:47:22;3.30;;;1.20;;
59872;SDS011;50750;51.636;4.948;2023-07-13T04:49:49;4.30;;;1.30;;
59872;SDS011;50750;51.636;4.948;2023-07-13T04:52:15;3.10;;;1.40;;
59872;SDS011;50750;51.636;4.948;2023-07-13T04:54:42;3.30;;;1.50;;
59872;SDS011;50750;51.636;4.948;2023-07-13T04:57:08;3.30;;;1.40;;
59872;SDS011;50750;51.636;4.948;2023-07-13T04:59:34;3.20;;;1.20;;
59872;SDS011;50750;51.636;4.948;2023-07-13T05:02:01;3.30;;;1.30;;
59872;SDS011;50750;51.636;4.948;2023-07-13T05:04:27;2.70;;;1.30;;
59872;SDS011;50750;51.636;4.948;2023-07-13T05:06:54;2.40;;;1.10;;
59872;SDS011;50750;51.636;4.948;2023-07-13T05:09:20;2.80;;;1.30;;
59872;SDS011;50750;51.636;4.948;2023-07-13T05:11:47;3.00;;;1.20;;
59872;SDS011;50750;51.636;4.948;2023-07-13T05:14:13;3.40;;;1.30;;
59872;SDS011;50750;51.636;4.948;2023-07-13T05:16:42;4.20;;;1.30;;
59872;SDS011;50750;51.636;4.948;2023-07-13T05:19:09;3.00;;;1.30;;
59872;SDS011;50750;51.636;4.948;2023-07-13T05:21:35;3.00;;;1.10;;
59872;SDS011;50750;51.636;4.948;2023-07-13T05:24:02;2.60;;;1.00;;
59872;SDS011;50750;51.636;4.948;2023-07-13T05:26:29;2.90;;;1.10;;
59872;SDS011;50750;51.636;4.948;2023-07-13T05:28:55;3.10;;;1.30;;
59872;SDS011;50750;51.636;4.948;2023-07-13T05:31:22;3.00;;;1.30;;
59872;SDS011;50750;51.636;4.948;2023-07-13T05:33:48;3.60;;;1.50;;
59872;SDS011;50750;51.636;4.948;2023-07-13T05:36:15;3.10;;;1.10;;
59872;SDS011;50750;51.636;4.948;2023-07-13T05:38:41;4.00;;;1.20;;
59872;SDS011;50750;51.636;4.948;2023-07-13T05:41:08;3.40;;;1.30;;
59872;SDS011;50750;51.636;4.948;2023-07-13T05:43:34;3.20;;;1.50;;
59872;SDS011;50750;51.636;4.948;2023-07-13T05:46:01;2.80;;;1.40;;
59872;SDS011;50750;51.636;4.948;2023-07-13T05:48:28;3.70;;;1.40;;
59872;SDS011;50750;51.636;4.948;2023-07-13T05:50:55;3.50;;;1.50;;
59872;SDS011;50750;51.636;4.948;2023-07-13T05:53:21;3.80;;;1.30;;
59872;SDS011;50750;51.636;4.948;2023-07-13T05:55:48;4.80;;;1.80;;
59872;SDS011;50750;51.636;4.948;2023-07-13T05:58:16;4.00;;;1.60;;
59872;SDS011;50750;51.636;4.948;2023-07-13T06:00:43;3.00;;;1.40;;
59872;SDS011;50750;51.636;4.948;2023-07-13T06:03:10;3.10;;;1.20;;
59872;SDS011;50750;51.636;4.948;2023-07-13T06:05:36;5.60;;;1.80;;
59872;SDS011;50750;51.636;4.948;2023-07-13T06:08:04;3.70;;;1.60;;
59872;SDS011;50750;51.636;4.948;2023-07-13T06:10:32;3.20;;;1.40;;
59872;SDS011;50750;51.636;4.948;2023-07-13T06:13:00;4.50;;;2.00;;
59872;SDS011;50750;51.636;4.948;2023-07-13T06:15:26;5.00;;;1.70;;
59872;SDS011;50750;51.636;4.948;2023-07-13T06:17:53;3.10;;;1.60;;
59872;SDS011;50750;51.636;4.948;2023-07-13T06:20:19;4.30;;;1.60;;
59872;SDS011;50750;51.636;4.948;2023-07-13T06:22:46;3.60;;;1.60;;
59872;SDS011;50750;51.636;4.948;2023-07-13T06:25:12;4.00;;;1.80;;
59872;SDS011;50750;51.636;4.948;2023-07-13T06:27:38;3.80;;;1.70;;
59872;SDS011;50750;51.636;4.948;2023-07-13T06:30:05;4.40;;;1.80;;
59872;SDS011;50750;51.636;4.948;2023-07-13T06:32:32;4.30;;;1.50;;
59872;SDS011;50750;51.636;4.948;2023-07-13T06:34:58;4.30;;;1.80;;
59872;SDS011;50750;51.636;4.948;2023-07-13T06:37:25;4.70;;;1.70;;
59872;SDS011;50750;51.636;4.948;2023-07-13T06:39:51;4.10;;;1.60;;
59872;SDS011;50750;51.636;4.948;2023-07-13T06:42:18;4.70;;;1.80;;
59872;SDS011;50750;51.636;4.948;2023-07-13T06:44:44;4.60;;;1.70;;
59872;SDS011;50750;51.636;4.948;2023-07-13T06:47:11;4.50;;;1.90;;
59872;SDS011;50750;51.636;4.948;2023-07-13T06:49:37;5.80;;;2.00;;
59872;SDS011;50750;51.636;4.948;2023-07-13T06:52:04;3.90;;;2.00;;
59872;SDS011;50750;51.636;4.948;2023-07-13T06:54:31;4.00;;;1.90;;
59872;SDS011;50750;51.636;4.948;2023-07-13T06:56:57;5.10;;;2.10;;
59872;SDS011;50750;51.636;4.948;2023-07-13T06:59:24;5.30;;;2.00;;
59872;SDS011;50750;51.636;4.948;2023-07-13T07:01:50;6.00;;;2.20;;
59872;SDS011;50750;51.636;4.948;2023-07-13T07:04:17;4.40;;;1.80;;
59872;SDS011;50750;51.636;4.948;2023-07-13T07:06:43;4.90;;;2.30;;
59872;SDS011;50750;51.636;4.948;2023-07-13T07:09:10;4.50;;;2.00;;
59872;SDS011;50750;51.636;4.948;2023-07-13T07:11:36;4.90;;;1.90;;
59872;SDS011;50750;51.636;4.948;2023-07-13T07:14:03;5.30;;;1.90;;
59872;SDS011;50750;51.636;4.948;2023-07-13T07:16:30;3.90;;;2.10;;
59872;SDS011;50750;51.636;4.948;2023-07-13T07:18:56;3.70;;;1.90;;
59872;SDS011;50750;51.636;4.948;2023-07-13T07:21:23;4.40;;;2.10;;
59872;SDS011;50750;51.636;4.948;2023-07-13T07:23:50;3.80;;;1.90;;
59872;SDS011;50750;51.636;4.948;2023-07-13T07:26:18;3.90;;;2.20;;
59872;SDS011;50750;51.636;4.948;2023-07-13T07:28:45;4.30;;;2.10;;
59872;SDS011;50750;51.636;4.948;2023-07-13T07:31:11;5.30;;;2.30;;
59872;SDS011;50750;51.636;4.948;2023-07-13T07:33:38;4.10;;;2.00;;
59872;SDS011;50750;51.636;4.948;2023-07-13T07:36:05;4.60;;;2.10;;
59872;SDS011;50750;51.636;4.948;2023-07-13T07:38:31;4.60;;;2.20;;
59872;SDS011;50750;51.636;4.948;2023-07-13T07:40:58;4.70;;;2.20;;
59872;SDS011;50750;51.636;4.948;2023-07-13T07:43:24;5.70;;;2.40;;
59872;SDS011;50750;51.636;4.948;2023-07-13T07:45:51;5.20;;;2.40;;
59872;SDS011;50750;51.636;4.948;2023-07-13T07:48:17;4.90;;;2.40;;
59872;SDS011;50750;51.636;4.948;2023-07-13T07:50:44;4.50;;;2.10;;
59872;SDS011;50750;51.636;4.948;2023-07-13T07:53:10;4.10;;;2.00;;
59872;SDS011;50750;51.636;4.948;2023-07-13T07:55:37;4.40;;;2.10;;
59872;SDS011;50750;51.636;4.948;2023-07-13T07:58:04;4.60;;;2.30;;
59872;SDS011;50750;51.636;4.948;2023-07-13T08:00:32;4.50;;;2.40;;
59872;SDS011;50750;51.636;4.948;2023-07-13T08:02:59;3.60;;;2.20;;
59872;SDS011;50750;51.636;4.948;2023-07-13T08:05:26;4.90;;;2.20;;
59872;SDS011;50750;51.636;4.948;2023-07-13T08:07:53;4.30;;;2.20;;
59872;SDS011;50750;51.636;4.948;2023-07-13T08:10:19;4.20;;;2.10;;
59872;SDS011;50750;51.636;4.948;2023-07-13T08:12:46;4.50;;;2.20;;
59872;SDS011;50750;51.636;4.948;2023-07-13T08:15:14;4.90;;;2.20;;
59872;SDS011;50750;51.636;4.948;2023-07-13T08:17:42;4.50;;;2.20;;
59872;SDS011;50750;51.636;4.948;2023-07-13T08:20:08;4.90;;;2.10;;
59872;SDS011;50750;51.636;4.948;2023-07-13T08:22:35;4.30;;;2.20;;
59872;SDS011;50750;51.636;4.948;2023-07-13T08:25:02;3.70;;;1.90;;
59872;SDS011;50750;51.636;4.948;2023-07-13T08:27:29;4.90;;;2.30;;
59872;SDS011;50750;51.636;4.948;2023-07-13T08:29:56;4.40;;;2.10;;
59872;SDS011;50750;51.636;4.948;2023-07-13T08:32:22;3.90;;;2.20;;
59872;SDS011;50750;51.636;4.948;2023-07-13T08:34:50;3.60;;;1.90;;
59872;SDS011;50750;51.636;4.948;2023-07-13T08:37:17;4.20;;;1.90;;
59872;SDS011;50750;51.636;4.948;2023-07-13T08:39:44;5.60;;;2.10;;
59872;SDS011;50750;51.636;4.948;2023-07-13T08:42:27;4.70;;;1.90;;
59872;SDS011;50750;51.636;4.948;2023-07-13T08:48:50;4.10;;;1.90;;
59872;SDS011;50750;51.636;4.948;2023-07-13T08:51:00;3.60;;;1.90;;
59872;SDS011;50750;51.636;4.948;2023-07-13T08:53:46;3.80;;;2.00;;
59872;SDS011;50750;51.636;4.948;2023-07-13T08:56:22;4.80;;;2.10;;
59872;SDS011;50750;51.636;4.948;2023-07-13T08:59:05;4.40;;;2.10;;
59872;SDS011;50750;51.636;4.948;2023-07-13T09:04:37;4.70;;;2.10;;
59872;SDS011;50750;51.636;4.948;2023-07-13T09:14:47;14.50;;;3.30;;
59872;SDS011;50750;51.636;4.948;2023-07-13T09:17:20;11.60;;;3.00;;
59872;SDS011;50750;51.636;4.948;2023-07-13T09:22:44;8.00;;;2.40;;
59872;SDS011;50750;51.636;4.948;2023-07-13T09:27:55;8.10;;;2.40;;
59872;SDS011;50750;51.636;4.948;2023-07-13T09:30:31;7.50;;;2.10;;
59872;SDS011;50750;51.636;4.948;2023-07-13T09:33:02;7.20;;;2.40;;
59872;SDS011;50750;51.636;4.948;2023-07-13T09:35:30;13.60;;;2.70;;
59872;SDS011;50750;51.636;4.948;2023-07-13T09:38:11;6.00;;;2.10;;
59872;SDS011;50750;51.636;4.948;2023-07-13T09:40:43;11.70;;;2.60;;
59872;SDS011;50750;51.636;4.948;2023-07-13T09:43:19;5.50;;;2.10;;
59872;SDS011;50750;51.636;4.948;2023-07-13T09:45:47;6.50;;;2.50;;
59872;SDS011;50750;51.636;4.948;2023-07-13T09:48:15;7.10;;;2.20;;
59872;SDS011;50750;51.636;4.948;2023-07-13T09:50:43;5.50;;;2.10;;
59872;SDS011;50750;51.636;4.948;2023-07-13T09:53:14;5.00;;;2.30;;
59872;SDS011;50750;51.636;4.948;2023-07-13T09:55:43;4.10;;;2.20;;
59872;SDS011;50750;51.636;4.948;2023-07-13T10:00:43;5.70;;;2.20;;
59872;SDS011;50750;51.636;4.948;2023-07-13T10:03:20;5.00;;;2.10;;
59872;SDS011;50750;51.636;4.948;2023-07-13T10:05:50;7.50;;;2.10;;
59872;SDS011;50750;51.636;4.948;2023-07-13T10:08:23;5.10;;;2.50;;
59872;SDS011;50750;51.636;4.948;2023-07-13T10:10:57;5.30;;;2.30;;
59872;SDS011;50750;51.636;4.948;2023-07-13T10:13:35;5.50;;;2.10;;
59872;SDS011;50750;51.636;4.948;2023-07-13T10:16:04;5.90;;;2.10;;
59872;SDS011;50750;51.636;4.948;2023-07-13T10:18:43;3.70;;;2.00;;
59872;SDS011;50750;51.636;4.948;2023-07-13T10:21:18;4.10;;;1.80;;
59872;SDS011;50750;51.636;4.948;2023-07-13T10:23:54;5.00;;;2.10;;
59872;SDS011;50750;51.636;4.948;2023-07-13T10:26:26;5.60;;;2.10;;
59872;SDS011;50750;51.636;4.948;2023-07-13T10:28:59;4.20;;;2.00;;
59872;SDS011;50750;51.636;4.948;2023-07-13T10:31:30;6.20;;;1.90;;
59872;SDS011;50750;51.636;4.948;2023-07-13T10:33:57;4.40;;;2.20;;
59872;SDS011;50750;51.636;4.948;2023-07-13T10:36:34;5.10;;;2.20;;
59872;SDS011;50750;51.636;4.948;2023-07-13T10:39:06;5.30;;;2.10;;
59872;SDS011;50750;51.636;4.948;2023-07-13T10:41:38;6.30;;;2.30;;
59872;SDS011;50750;51.636;4.948;2023-07-13T10:44:10;4.40;;;1.90;;
59872;SDS011;50750;51.636;4.948;2023-07-13T10:46:46;5.70;;;2.30;;
59872;SDS011;50750;51.636;4.948;2023-07-13T10:49:14;5.60;;;2.20;;
59872;SDS011;50750;51.636;4.948;2023-07-13T10:51:42;5.10;;;2.10;;
59872;SDS011;50750;51.636;4.948;2023-07-13T10:56:35;4.40;;;2.20;;
59872;SDS011;50750;51.636;4.948;2023-07-13T11:02:10;3.20;;;1.80;;
59872;SDS011;50750;51.636;4.948;2023-07-13T11:04:39;5.50;;;2.30;;
59872;SDS011;50750;51.636;4.948;2023-07-13T11:07:18;3.90;;;2.00;;
59872;SDS011;50750;51.636;4.948;2023-07-13T11:09:57;5.50;;;2.20;;
59872;SDS011;50750;51.636;4.948;2023-07-13T11:19:54;3.60;;;1.90;;
59872;SDS011;50750;51.636;4.948;2023-07-13T11:25:29;4.20;;;2.20;;
59872;SDS011;50750;51.636;4.948;2023-07-13T11:30:37;4.20;;;1.90;;
59872;SDS011;50750;51.636;4.948;2023-07-13T11:35:36;4.80;;;1.90;;
59872;SDS011;50750;51.636;4.948;2023-07-13T11:38:51;3.40;;;2.00;;
59872;SDS011;50750;51.636;4.948;2023-07-13T11:41:01;3.90;;;1.90;;
59872;SDS011;50750;51.636;4.948;2023-07-13T11:43:30;3.50;;;2.00;;
59872;SDS011;50750;51.636;4.948;2023-07-13T11:46:12;3.30;;;1.90;;
59872;SDS011;50750;51.636;4.948;2023-07-13T11:48:44;3.90;;;2.10;;
59872;SDS011;50750;51.636;4.948;2023-07-13T11:51:15;3.10;;;1.90;;
59872;SDS011;50750;51.636;4.948;2023-07-13T11:53:50;3.60;;;1.90;;
59872;SDS011;50750;51.636;4.948;2023-07-13T11:56:18;3.90;;;2.00;;
59872;SDS011;50750;51.636;4.948;2023-07-13T11:58:56;3.50;;;1.80;;
59872;SDS011;50750;51.636;4.948;2023-07-13T12:01:28;3.80;;;1.90;;
59872;SDS011;50750;51.636;4.948;2023-07-13T12:04:02;5.50;;;1.90;;
59872;SDS011;50750;51.636;4.948;2023-07-13T12:06:31;3.20;;;1.70;;
59872;SDS011;50750;51.636;4.948;2023-07-13T12:09:13;5.00;;;2.00;;
59872;SDS011;50750;51.636;4.948;2023-07-13T12:11:44;3.80;;;2.00;;
59872;SDS011;50750;51.636;4.948;2023-07-13T12:14:17;4.30;;;1.90;;
59872;SDS011;50750;51.636;4.948;2023-07-13T12:16:45;4.90;;;2.00;;
59872;SDS011;50750;51.636;4.948;2023-07-13T12:19:22;3.80;;;1.70;;
59872;SDS011;50750;51.636;4.948;2023-07-13T12:21:54;3.60;;;1.60;;
59872;SDS011;50750;51.636;4.948;2023-07-13T12:24:23;3.50;;;1.60;;
59872;SDS011;50750;51.636;4.948;2023-07-13T12:26:52;3.90;;;1.80;;
59872;SDS011;50750;51.636;4.948;2023-07-13T12:29:20;4.00;;;1.90;;
59872;SDS011;50750;51.636;4.948;2023-07-13T12:31:48;3.20;;;1.80;;
59872;SDS011;50750;51.636;4.948;2023-07-13T12:34:19;3.00;;;1.90;;
59872;SDS011;50750;51.636;4.948;2023-07-13T12:36:49;4.60;;;2.60;;
59872;SDS011;50750;51.636;4.948;2023-07-13T12:39:17;5.20;;;2.10;;
59872;SDS011;50750;51.636;4.948;2023-07-13T12:41:47;5.00;;;1.90;;
59872;SDS011;50750;51.636;4.948;2023-07-13T12:44:17;3.20;;;1.70;;
59872;SDS011;50750;51.636;4.948;2023-07-13T12:46:53;2.90;;;1.60;;
59872;SDS011;50750;51.636;4.948;2023-07-13T12:49:23;3.00;;;1.90;;
59872;SDS011;50750;51.636;4.948;2023-07-13T12:51:58;3.30;;;1.70;;
59872;SDS011;50750;51.636;4.948;2023-07-13T12:54:26;3.80;;;1.70;;
59872;SDS011;50750;51.636;4.948;2023-07-13T12:56:54;3.60;;;1.70;;
59872;SDS011;50750;51.636;4.948;2023-07-13T12:59:25;3.50;;;2.00;;
59872;SDS011;50750;51.636;4.948;2023-07-13T13:02:00;3.40;;;1.80;;
59872;SDS011;50750;51.636;4.948;2023-07-13T13:04:26;3.80;;;2.00;;
59872;SDS011;50750;51.636;4.948;2023-07-13T13:07:00;5.10;;;1.90;;
59872;SDS011;50750;51.636;4.948;2023-07-13T13:09:29;3.80;;;1.90;;
59872;SDS011;50750;51.636;4.948;2023-07-13T13:11:55;4.70;;;2.00;;
59872;SDS011;50750;51.636;4.948;2023-07-13T13:14:22;3.10;;;1.70;;
59872;SDS011;50750;51.636;4.948;2023-07-13T13:16:49;3.30;;;1.60;;
59872;SDS011;50750;51.636;4.948;2023-07-13T13:19:18;3.80;;;2.10;;
59872;SDS011;50750;51.636;4.948;2023-07-13T13:21:50;4.00;;;1.90;;
59872;SDS011;50750;51.636;4.948;2023-07-13T13:24:20;4.40;;;1.90;;
59872;SDS011;50750;51.636;4.948;2023-07-13T13:29:18;5.40;;;1.70;;
59872;SDS011;50750;51.636;4.948;2023-07-13T13:31:46;3.80;;;1.80;;
59872;SDS011;50750;51.636;4.948;2023-07-13T13:34:14;3.20;;;1.70;;
59872;SDS011;50750;51.636;4.948;2023-07-13T13:36:42;4.50;;;2.00;;
59872;SDS011;50750;51.636;4.948;2023-07-13T13:39:18;3.50;;;1.90;;
59872;SDS011;50750;51.636;4.948;2023-07-13T13:41:51;4.10;;;1.90;;
59872;SDS011;50750;51.636;4.948;2023-07-13T13:44:19;3.90;;;2.00;;
59872;SDS011;50750;51.636;4.948;2023-07-13T13:46:50;5.20;;;1.90;;
59872;SDS011;50750;51.636;4.948;2023-07-13T13:49:23;4.60;;;1.80;;
59872;SDS011;50750;51.636;4.948;2023-07-13T13:51:54;3.40;;;1.90;;
59872;SDS011;50750;51.636;4.948;2023-07-13T13:54:21;4.80;;;2.10;;
59872;SDS011;50750;51.636;4.948;2023-07-13T13:56:50;3.50;;;1.90;;
59872;SDS011;50750;51.636;4.948;2023-07-13T13:59:17;4.70;;;2.10;;
59872;SDS011;50750;51.636;4.948;2023-07-13T14:01:45;3.60;;;2.10;;
59872;SDS011;50750;51.636;4.948;2023-07-13T14:04:20;3.80;;;2.10;;
59872;SDS011;50750;51.636;4.948;2023-07-13T14:06:48;4.50;;;1.90;;
59872;SDS011;50750;51.636;4.948;2023-07-13T14:09:16;3.60;;;2.00;;
59872;SDS011;50750;51.636;4.948;2023-07-13T14:11:45;4.10;;;2.10;;
59872;SDS011;50750;51.636;4.948;2023-07-13T14:14:23;3.70;;;1.80;;
59872;SDS011;50750;51.636;4.948;2023-07-13T14:16:53;3.30;;;1.80;;
59872;SDS011;50750;51.636;4.948;2023-07-13T14:26:42;4.60;;;2.00;;
59872;SDS011;50750;51.636;4.948;2023-07-13T14:29:13;3.20;;;1.90;;
59872;SDS011;50750;51.636;4.948;2023-07-13T14:31:42;4.60;;;2.20;;
59872;SDS011;50750;51.636;4.948;2023-07-13T14:34:10;3.90;;;1.80;;
59872;SDS011;50750;51.636;4.948;2023-07-13T14:36:39;3.90;;;2.10;;
59872;SDS011;50750;51.636;4.948;2023-07-13T14:39:12;3.50;;;2.00;;
59872;SDS011;50750;51.636;4.948;2023-07-13T14:41:41;4.40;;;1.90;;
59872;SDS011;50750;51.636;4.948;2023-07-13T14:44:11;3.20;;;1.60;;
59872;SDS011;50750;51.636;4.948;2023-07-13T14:46:42;5.10;;;2.10;;
59872;SDS011;50750;51.636;4.948;2023-07-13T14:51:58;4.20;;;2.00;;
59872;SDS011;50750;51.636;4.948;2023-07-13T14:54:27;4.30;;;1.90;;
59872;SDS011;50750;51.636;4.948;2023-07-13T14:56:54;4.40;;;1.90;;
59872;SDS011;50750;51.636;4.948;2023-07-13T14:59:20;3.70;;;1.70;;
59872;SDS011;50750;51.636;4.948;2023-07-13T15:01:47;4.10;;;1.80;;
59872;SDS011;50750;51.636;4.948;2023-07-13T15:04:15;5.00;;;1.90;;
59872;SDS011;50750;51.636;4.948;2023-07-13T15:06:52;4.00;;;2.00;;
59872;SDS011;50750;51.636;4.948;2023-07-13T15:09:20;3.80;;;1.70;;
59872;SDS011;50750;51.636;4.948;2023-07-13T15:11:46;3.50;;;1.80;;
59872;SDS011;50750;51.636;4.948;2023-07-13T15:14:13;3.00;;;1.70;;
59872;SDS011;50750;51.636;4.948;2023-07-13T15:16:39;3.60;;;1.80;;
59872;SDS011;50750;51.636;4.948;2023-07-13T15:19:08;3.10;;;1.70;;
59872;SDS011;50750;51.636;4.948;2023-07-13T15:21:36;3.70;;;1.80;;
59872;SDS011;50750;51.636;4.948;2023-07-13T15:24:03;3.20;;;1.50;;
59872;SDS011;50750;51.636;4.948;2023-07-13T15:26:34;3.60;;;1.80;;
59872;SDS011;50750;51.636;4.948;2023-07-13T15:29:01;3.00;;;1.70;;
59872;SDS011;50750;51.636;4.948;2023-07-13T15:31:27;3.20;;;1.80;;
59872;SDS011;50750;51.636;4.948;2023-07-13T15:33:55;2.70;;;1.70;;
59872;SDS011;50750;51.636;4.948;2023-07-13T15:36:24;3.40;;;2.00;;
59872;SDS011;50750;51.636;4.948;2023-07-13T15:38:53;3.00;;;1.60;;
59872;SDS011;50750;51.636;4.948;2023-07-13T15:41:21;3.70;;;2.10;;
59872;SDS011;50750;51.636;4.948;2023-07-13T15:43:51;3.40;;;1.80;;
59872;SDS011;50750;51.636;4.948;2023-07-13T15:46:20;3.70;;;1.80;;
59872;SDS011;50750;51.636;4.948;2023-07-13T15:48:48;4.00;;;1.90;;
59872;SDS011;50750;51.636;4.948;2023-07-13T15:53:53;3.20;;;1.70;;
59872;SDS011;50750;51.636;4.948;2023-07-13T15:56:25;3.40;;;1.90;;
59872;SDS011;50750;51.636;4.948;2023-07-13T15:58:53;3.10;;;1.70;;
59872;SDS011;50750;51.636;4.948;2023-07-13T16:01:22;2.80;;;1.70;;
59872;SDS011;50750;51.636;4.948;2023-07-13T16:03:50;3.80;;;1.90;;
59872;SDS011;50750;51.636;4.948;2023-07-13T16:06:19;3.20;;;1.60;;
59872;SDS011;50750;51.636;4.948;2023-07-13T16:08:49;3.30;;;1.80;;